createdAt,value
2018-01-08T00:00:04.913Z,8.50
2018-01-08T00:01:11.765Z,8.70
2018-01-08T00:02:18.473Z,9.30
2018-01-08T00:03:25.215Z,8.50
2018-01-08T00:04:31.987Z,8.60
2018-01-08T00:05:38.776Z,7.80
2018-01-08T00:06:45.639Z,9.30
2018-01-08T00:07:52.343Z,8.60
2018-01-08T00:08:59.076Z,8.70
2018-01-08T00:10:05.832Z,9.10
2018-01-08T00:11:12.681Z,9.10
2018-01-08T00:12:19.412Z,8.80
2018-01-08T00:13:26.139Z,8.40
2018-01-08T00:14:32.885Z,9.20
2018-01-08T00:15:39.668Z,10.00
2018-01-08T00:16:46.369Z,8.30
2018-01-08T00:17:53.092Z,9.30
2018-01-08T00:18:59.831Z,9.20
2018-01-08T00:20:06.617Z,10.80
2018-01-08T00:21:13.335Z,9.00
2018-01-08T00:22:20.076Z,8.90
2018-01-08T00:23:26.829Z,8.50
2018-01-08T00:24:33.582Z,8.90
2018-01-08T00:25:40.420Z,8.60
2018-01-08T00:26:47.178Z,9.60
2018-01-08T00:27:53.954Z,10.00
2018-01-08T00:29:00.693Z,9.40
2018-01-08T00:30:07.559Z,9.00
2018-01-08T00:31:14.339Z,9.80
2018-01-08T00:32:21.119Z,9.60
2018-01-08T00:33:27.897Z,9.80
2018-01-08T00:34:34.660Z,10.90
2018-01-08T00:35:41.561Z,9.40
2018-01-08T00:36:48.311Z,9.80
2018-01-08T00:37:55.116Z,10.50
2018-01-08T00:39:01.904Z,8.80
2018-01-08T00:40:08.865Z,9.70
2018-01-08T00:41:15.654Z,8.80
2018-01-08T00:42:22.494Z,8.40
2018-01-08T00:43:29.251Z,9.30
2018-01-08T00:44:36.011Z,9.10
2018-01-08T00:45:42.751Z,10.40
2018-01-08T00:46:49.565Z,10.20
2018-01-08T00:47:56.344Z,9.80
2018-01-08T00:49:03.093Z,9.30
2018-01-08T00:50:09.975Z,8.60
2018-01-08T00:51:16.761Z,10.80
2018-01-08T00:52:23.505Z,10.50
2018-01-08T00:53:30.278Z,9.30
2018-01-08T00:54:37.024Z,10.70
2018-01-08T00:55:43.774Z,9.80
2018-01-08T00:56:50.564Z,9.50
2018-01-08T00:57:57.530Z,9.80
2018-01-08T00:59:04.273Z,11.10
2018-01-08T01:00:11.020Z,12.20
2018-01-08T01:01:17.835Z,10.30
2018-01-08T01:02:24.580Z,12.20
2018-01-08T01:03:31.320Z,12.20
2018-01-08T01:04:38.071Z,10.00
2018-01-08T01:05:44.884Z,10.90
2018-01-08T01:06:51.670Z,9.50
2018-01-08T01:07:58.486Z,9.90
2018-01-08T01:09:05.303Z,10.60
2018-01-08T01:10:12.037Z,10.70
2018-01-08T01:11:18.790Z,10.80
2018-01-08T01:12:25.561Z,9.60
2018-01-08T01:13:32.331Z,10.90
2018-01-08T01:14:39.044Z,9.60
2018-01-08T01:15:45.815Z,10.60
2018-01-08T01:16:52.553Z,9.20
2018-01-08T01:17:59.393Z,9.60
2018-01-08T01:19:06.144Z,10.60
2018-01-08T01:20:12.845Z,10.20
2018-01-08T01:21:19.576Z,10.40
2018-01-08T01:22:26.272Z,10.70
2018-01-08T01:23:33.060Z,10.30
2018-01-08T01:24:39.737Z,11.00
2018-01-08T01:25:46.428Z,10.30
2018-01-08T01:26:53.159Z,9.60
2018-01-08T01:27:59.944Z,10.50
2018-01-08T01:29:06.773Z,10.10
2018-01-08T01:30:13.612Z,9.80
2018-01-08T01:31:20.293Z,10.20
2018-01-08T01:32:26.995Z,9.70
2018-01-08T01:33:33.702Z,10.00
2018-01-08T01:34:40.442Z,10.20
2018-01-08T01:35:47.121Z,9.50
2018-01-08T01:36:53.836Z,10.20
2018-01-08T01:38:00.576Z,10.20
2018-01-08T01:39:07.284Z,9.70
2018-01-08T01:40:13.988Z,9.80
2018-01-08T01:41:20.760Z,10.30
2018-01-08T01:42:27.457Z,11.80
2018-01-08T01:43:34.208Z,10.60
2018-01-08T01:44:40.888Z,10.50
2018-01-08T01:45:47.580Z,11.00
2018-01-08T01:46:54.273Z,11.00
2018-01-08T01:48:01.109Z,10.40
2018-01-08T01:49:07.953Z,10.20
2018-01-08T01:50:14.784Z,10.50
2018-01-08T01:51:21.472Z,9.70
2018-01-08T01:52:28.297Z,9.50
2018-01-08T01:53:35.000Z,10.10
2018-01-08T01:54:41.803Z,10.40
2018-01-08T01:55:48.463Z,11.00
2018-01-08T01:56:55.148Z,10.60
2018-01-08T01:58:01.865Z,10.20
2018-01-08T01:59:08.559Z,10.10
2018-01-08T02:00:15.381Z,11.80
2018-01-08T02:01:22.109Z,10.00
2018-01-08T02:02:28.792Z,10.80
2018-01-08T02:03:35.480Z,10.10
2018-01-08T02:04:42.176Z,10.20
2018-01-08T02:05:48.888Z,11.30
2018-01-08T02:06:55.599Z,9.90
2018-01-08T02:08:02.284Z,11.20
2018-01-08T02:09:09.093Z,10.20
2018-01-08T02:10:15.811Z,10.20
2018-01-08T02:11:22.536Z,10.00
2018-01-08T02:12:29.243Z,10.50
2018-01-08T02:13:35.956Z,10.20
2018-01-08T02:14:42.655Z,10.80
2018-01-08T02:15:49.464Z,11.00
2018-01-08T02:16:56.161Z,10.00
2018-01-08T02:18:02.859Z,10.40
2018-01-08T02:19:09.572Z,10.70
2018-01-08T02:20:16.389Z,10.40
2018-01-08T02:21:23.172Z,10.30
2018-01-08T02:22:29.861Z,10.40
2018-01-08T02:23:36.556Z,9.90
2018-01-08T02:24:43.276Z,10.30
2018-01-08T02:25:50.009Z,9.70
2018-01-08T02:26:56.783Z,10.20
2018-01-08T02:28:03.754Z,10.10
2018-01-08T02:29:10.500Z,10.10
2018-01-08T02:30:17.265Z,10.80
2018-01-08T02:31:24.021Z,10.40
2018-01-08T02:32:30.720Z,10.50
2018-01-08T02:33:37.428Z,9.80
2018-01-08T02:34:44.138Z,10.30
2018-01-08T02:35:50.861Z,10.90
2018-01-08T02:36:57.652Z,10.40
2018-01-08T02:38:04.365Z,10.60
2018-01-08T02:39:11.086Z,10.40
2018-01-08T02:40:17.863Z,9.80
2018-01-08T02:41:24.544Z,9.40
2018-01-08T02:42:31.356Z,9.90
2018-01-08T02:43:38.048Z,10.80
2018-01-08T02:44:44.768Z,10.00
2018-01-08T02:45:51.475Z,10.20
2018-01-08T02:46:58.232Z,10.50
2018-01-08T02:48:04.928Z,11.00
2018-01-08T02:49:11.716Z,10.60
2018-01-08T02:50:18.413Z,9.90
2018-01-08T02:51:25.107Z,9.90
2018-01-08T02:52:31.859Z,10.60
2018-01-08T02:53:38.560Z,10.20
2018-01-08T02:54:45.269Z,10.20
2018-01-08T02:55:52.065Z,9.70
2018-01-08T02:56:58.756Z,10.40
2018-01-08T02:58:05.500Z,10.10
2018-01-08T02:59:12.204Z,10.50
2018-01-08T03:00:19.016Z,9.60
2018-01-08T03:01:25.788Z,10.40
2018-01-08T03:02:32.477Z,10.20
2018-01-08T03:03:39.211Z,9.80
2018-01-08T03:04:45.960Z,9.70
2018-01-08T03:05:52.704Z,9.50
2018-01-08T03:06:59.488Z,10.10
2018-01-08T03:08:06.259Z,10.80
2018-01-08T03:09:13.001Z,9.90
2018-01-08T03:10:19.698Z,9.50
2018-01-08T03:11:26.380Z,9.60
2018-01-08T03:12:33.197Z,9.40
2018-01-08T03:13:39.898Z,10.80
2018-01-08T03:14:46.614Z,10.20
2018-01-08T03:15:53.330Z,9.90
2018-01-08T03:17:00.057Z,9.60
2018-01-08T03:18:06.848Z,9.90
2018-01-08T03:19:13.578Z,10.10
2018-01-08T03:20:20.357Z,9.70
2018-01-08T03:21:27.085Z,10.30
2018-01-08T03:22:33.936Z,9.90
2018-01-08T03:23:40.681Z,9.40
2018-01-08T03:24:47.422Z,9.60
2018-01-08T03:25:54.188Z,9.90
2018-01-08T03:27:00.917Z,10.20
2018-01-08T03:28:07.769Z,10.40
2018-01-08T03:29:14.573Z,10.50
2018-01-08T03:30:21.322Z,9.60
2018-01-08T03:31:28.089Z,9.80
2018-01-08T03:32:34.869Z,9.50
2018-01-08T03:33:41.704Z,10.80
2018-01-08T03:34:48.519Z,9.60
2018-01-08T03:35:55.276Z,8.90
2018-01-08T03:37:02.013Z,9.90
2018-01-08T03:38:08.753Z,10.10
2018-01-08T03:39:15.593Z,10.10
2018-01-08T03:40:22.356Z,10.20
2018-01-08T03:41:29.128Z,9.60
2018-01-08T03:42:36.000Z,9.20
2018-01-08T03:43:42.733Z,9.50
2018-01-08T03:44:49.508Z,10.20
2018-01-08T03:45:56.256Z,9.00
2018-01-08T03:47:03.069Z,9.50
2018-01-08T03:48:09.916Z,9.80
2018-01-08T03:49:16.652Z,10.50
2018-01-08T03:50:23.499Z,9.80
2018-01-08T03:51:30.232Z,9.80
2018-01-08T03:52:37.088Z,9.50
2018-01-08T03:53:43.904Z,10.40
2018-01-08T03:54:50.639Z,9.80
2018-01-08T03:55:57.393Z,9.90
2018-01-08T03:57:04.125Z,10.00
2018-01-08T03:58:10.864Z,9.60
2018-01-08T03:59:17.625Z,9.40
2018-01-08T04:00:24.382Z,10.10
2018-01-08T04:01:31.156Z,10.10
2018-01-08T04:02:38.040Z,9.30
2018-01-08T04:03:44.769Z,9.30
2018-01-08T04:04:51.532Z,8.90
2018-01-08T04:05:58.284Z,9.30
2018-01-08T04:07:05.105Z,9.60
2018-01-08T04:08:11.831Z,9.50
2018-01-08T04:09:18.587Z,9.40
2018-01-08T04:10:25.362Z,10.10
2018-01-08T04:11:32.132Z,9.80
2018-01-08T04:12:38.864Z,9.40
2018-01-08T04:13:45.603Z,10.00
2018-01-08T04:14:52.352Z,9.10
2018-01-08T04:15:59.225Z,10.00
2018-01-08T04:17:06.083Z,9.40
2018-01-08T04:18:12.808Z,10.10
2018-01-08T04:19:19.611Z,9.50
2018-01-08T04:20:26.384Z,10.20
2018-01-08T04:21:33.169Z,10.90
2018-01-08T04:22:40.021Z,9.90
2018-01-08T04:23:46.781Z,10.90
2018-01-08T04:24:53.528Z,10.30
2018-01-08T04:26:00.261Z,9.80
2018-01-08T04:27:07.075Z,10.00
2018-01-08T04:28:13.843Z,10.40
2018-01-08T04:29:20.608Z,10.40
2018-01-08T04:30:27.364Z,11.20
2018-01-08T04:31:34.124Z,10.90
2018-01-08T04:32:40.893Z,10.20
2018-01-08T04:33:47.663Z,10.50
2018-01-08T04:34:54.520Z,9.80
2018-01-08T04:36:01.272Z,10.40
2018-01-08T04:37:08.072Z,10.70
2018-01-08T04:38:14.911Z,10.90
2018-01-08T04:39:21.627Z,9.40
2018-01-08T04:40:28.396Z,9.80
2018-01-08T04:41:35.164Z,10.00
2018-01-08T04:42:41.995Z,9.50
2018-01-08T04:43:48.735Z,9.30
2018-01-08T04:44:55.487Z,9.90
2018-01-08T04:46:02.232Z,10.30
2018-01-08T04:47:09.032Z,10.20
2018-01-08T04:48:15.789Z,9.80
2018-01-08T04:49:22.546Z,9.20
2018-01-08T04:50:29.252Z,10.50
2018-01-08T04:51:36.043Z,9.20
2018-01-08T04:52:42.807Z,10.10
2018-01-08T04:53:49.556Z,9.30
2018-01-08T04:54:56.308Z,10.40
2018-01-08T04:56:03.088Z,10.40
2018-01-08T04:57:09.828Z,9.90
2018-01-08T04:58:16.634Z,10.30
2018-01-08T04:59:23.372Z,10.50
2018-01-08T05:00:30.260Z,10.70
2018-01-08T05:01:38.393Z,10.50
2018-01-08T05:02:44.165Z,10.30
2018-01-08T05:03:50.957Z,9.40
2018-01-08T05:04:57.720Z,11.50
2018-01-08T05:06:04.467Z,10.50
2018-01-08T05:07:11.229Z,11.10
2018-01-08T05:08:18.013Z,10.20
2018-01-08T05:09:24.792Z,10.00
2018-01-08T05:10:31.553Z,9.70
2018-01-08T05:11:38.355Z,9.90
2018-01-08T05:12:45.187Z,10.50
2018-01-08T05:13:52.008Z,10.20
2018-01-08T05:14:58.793Z,9.80
2018-01-08T05:16:05.592Z,10.70
2018-01-08T05:17:12.384Z,11.40
2018-01-08T05:18:19.153Z,11.10
2018-01-08T05:19:25.888Z,12.00
2018-01-08T05:20:32.653Z,10.40
2018-01-08T05:21:39.336Z,10.00
2018-01-08T05:22:46.033Z,11.80
2018-01-08T05:23:52.740Z,10.70
2018-01-08T05:24:59.464Z,12.50
2018-01-08T05:26:06.176Z,13.70
2018-01-08T05:27:12.963Z,12.80
2018-01-08T05:28:19.656Z,12.10
2018-01-08T05:29:26.388Z,12.60
2018-01-08T05:30:33.113Z,11.80
2018-01-08T05:31:39.837Z,11.80
2018-01-08T05:32:46.652Z,11.30
2018-01-08T05:33:53.370Z,11.70
2018-01-08T05:35:00.154Z,12.50
2018-01-08T05:36:06.875Z,11.80
2018-01-08T05:37:13.580Z,13.20
2018-01-08T05:38:20.327Z,10.70
2018-01-08T05:39:27.088Z,12.00
2018-01-08T05:40:33.832Z,12.00
2018-01-08T05:41:40.524Z,12.00
2018-01-08T05:42:47.260Z,9.90
2018-01-08T05:43:54.039Z,12.70
2018-01-08T05:45:00.775Z,12.60
2018-01-08T05:46:07.521Z,10.90
2018-01-08T05:47:14.203Z,10.80
2018-01-08T05:48:20.924Z,9.80
2018-01-08T05:49:27.707Z,11.30
2018-01-08T05:50:34.416Z,10.40
2018-01-08T05:51:41.175Z,10.60
2018-01-08T05:52:47.864Z,9.90
2018-01-08T05:53:54.589Z,10.80
2018-01-08T05:55:01.351Z,11.20
2018-01-08T05:56:08.076Z,12.00
2018-01-08T05:57:14.791Z,10.80
2018-01-08T05:58:21.485Z,10.90
2018-01-08T05:59:28.192Z,12.80
2018-01-08T06:00:34.900Z,10.40
2018-01-08T06:01:41.672Z,10.70
2018-01-08T06:02:48.358Z,11.10
2018-01-08T06:03:55.061Z,11.60
2018-01-08T06:05:01.780Z,12.10
2018-01-08T06:06:08.509Z,11.60
2018-01-08T06:07:15.218Z,10.40
2018-01-08T06:08:22.031Z,11.00
2018-01-08T06:09:28.860Z,10.50
2018-01-08T06:10:35.585Z,11.30
2018-01-08T06:11:42.299Z,10.00
2018-01-08T06:12:49.115Z,10.90
2018-01-08T06:13:55.816Z,11.40
2018-01-08T06:15:02.546Z,10.90
2018-01-08T06:16:09.260Z,11.20
2018-01-08T06:17:16.067Z,11.50
2018-01-08T06:18:22.837Z,10.40
2018-01-08T06:19:29.585Z,11.40
2018-01-08T06:20:36.276Z,11.30
2018-01-08T06:21:43.108Z,11.70
2018-01-08T06:22:49.891Z,11.70
2018-01-08T06:23:56.581Z,11.80
2018-01-08T06:25:03.295Z,11.20
2018-01-08T06:26:09.988Z,11.60
2018-01-08T06:27:16.724Z,11.00
2018-01-08T06:28:23.392Z,12.10
2018-01-08T06:29:30.116Z,12.20
2018-01-08T06:30:36.917Z,11.50
2018-01-08T06:31:43.594Z,11.50
2018-01-08T06:32:50.379Z,11.10
2018-01-08T06:33:57.047Z,11.60
2018-01-08T06:35:03.776Z,11.50
2018-01-08T06:36:10.473Z,11.50
2018-01-08T06:37:17.304Z,11.20
2018-01-08T06:38:24.104Z,11.50
2018-01-08T06:39:30.797Z,11.60
2018-01-08T06:40:37.523Z,12.20
2018-01-08T06:41:44.216Z,12.90
2018-01-08T06:42:51.024Z,13.40
2018-01-08T06:43:57.726Z,12.10
2018-01-08T06:45:04.452Z,11.60
2018-01-08T06:46:11.195Z,11.60
2018-01-08T06:47:17.912Z,13.20
2018-01-08T06:48:24.624Z,11.90
2018-01-08T06:49:31.471Z,11.60
2018-01-08T06:50:38.171Z,11.40
2018-01-08T06:51:44.888Z,12.00
2018-01-08T06:52:51.630Z,11.70
2018-01-08T06:53:58.468Z,11.00
2018-01-08T06:55:05.176Z,12.10
2018-01-08T06:56:11.882Z,12.50
2018-01-08T06:57:18.717Z,12.80
2018-01-08T06:58:25.455Z,13.00
2018-01-08T06:59:32.214Z,12.50
2018-01-08T07:00:38.908Z,12.30
2018-01-08T07:01:45.616Z,13.10
2018-01-08T07:02:52.353Z,12.00
2018-01-08T07:03:59.084Z,11.50
2018-01-08T07:05:05.804Z,11.70
2018-01-08T07:06:12.626Z,12.00
2018-01-08T07:07:19.336Z,12.20
2018-01-08T07:08:26.088Z,12.60
2018-01-08T07:09:32.767Z,14.00
2018-01-08T07:10:39.460Z,14.50
2018-01-08T07:11:46.161Z,12.60
2018-01-08T07:12:52.880Z,11.90
2018-01-08T07:13:59.704Z,12.00
2018-01-08T07:15:06.460Z,12.30
2018-01-08T07:16:13.160Z,13.70
2018-01-08T07:17:19.868Z,15.60
2018-01-08T07:18:26.574Z,13.00
2018-01-08T07:19:33.420Z,13.70
2018-01-08T07:20:40.173Z,11.40
2018-01-08T07:21:46.943Z,12.60
2018-01-08T07:22:53.692Z,12.00
2018-01-08T07:24:00.520Z,12.50
2018-01-08T07:25:07.321Z,11.60
2018-01-08T07:26:14.074Z,12.80
2018-01-08T07:27:20.899Z,13.10
2018-01-08T07:28:27.633Z,12.30
2018-01-08T07:29:34.423Z,12.40
2018-01-08T07:30:41.181Z,11.30
2018-01-08T07:31:47.904Z,12.60
2018-01-08T07:32:54.693Z,12.20
2018-01-08T07:34:01.450Z,12.80
2018-01-08T07:35:08.473Z,12.20
2018-01-08T07:36:15.252Z,12.70
2018-01-08T07:37:22.024Z,11.00
2018-01-08T07:38:28.745Z,12.20
2018-01-08T07:39:35.576Z,11.40
2018-01-08T07:40:42.340Z,12.40
2018-01-08T07:41:49.083Z,12.20
2018-01-08T07:42:55.841Z,11.80
2018-01-08T07:44:02.684Z,11.50
2018-01-08T07:45:09.448Z,11.70
2018-01-08T07:46:16.216Z,11.10
2018-01-08T07:47:22.935Z,11.00
2018-01-08T07:48:29.667Z,11.70
2018-01-08T07:49:36.457Z,12.30
2018-01-08T07:50:43.196Z,12.20
2018-01-08T07:51:49.964Z,15.50
2018-01-08T07:52:56.694Z,17.60
2018-01-08T07:54:03.668Z,17.20
2018-01-08T07:55:10.435Z,17.10
2018-01-08T07:56:17.216Z,20.80
2018-01-08T07:57:24.044Z,12.40
2018-01-08T07:58:30.804Z,13.40
2018-01-08T07:59:37.541Z,11.20
2018-01-08T08:00:44.289Z,14.80
2018-01-08T08:01:51.160Z,18.20
2018-01-08T08:02:57.912Z,18.20
2018-01-08T08:04:04.676Z,15.70
2018-01-08T08:05:11.404Z,16.80
2018-01-08T08:06:18.156Z,12.00
2018-01-08T08:07:24.915Z,12.60
2018-01-08T08:08:31.675Z,11.90
2018-01-08T08:09:38.424Z,12.30
2018-01-08T08:10:45.165Z,12.30
2018-01-08T08:11:51.924Z,12.20
2018-01-08T08:12:58.708Z,12.40
2018-01-08T08:14:05.456Z,11.30
2018-01-08T08:15:12.221Z,12.00
2018-01-08T08:16:19.016Z,12.10
2018-01-08T08:17:25.832Z,11.20
2018-01-08T08:18:32.649Z,11.00
2018-01-08T08:19:39.491Z,11.40
2018-01-08T08:20:46.265Z,11.20
2018-01-08T08:21:53.104Z,12.60
2018-01-08T08:22:59.850Z,12.50
2018-01-08T08:24:06.724Z,11.80
2018-01-08T08:25:13.497Z,11.70
2018-01-08T08:26:20.220Z,11.50
2018-01-08T08:27:27.019Z,11.50
2018-01-08T08:28:33.864Z,12.00
2018-01-08T08:29:40.608Z,11.80
2018-01-08T08:30:47.397Z,11.80
2018-01-08T08:31:54.262Z,13.70
2018-01-08T08:33:01.209Z,12.60
2018-01-08T08:34:08.044Z,11.60
2018-01-08T08:35:14.760Z,11.60
2018-01-08T08:36:21.856Z,10.80
2018-01-08T08:37:28.628Z,11.70
2018-01-08T08:38:35.456Z,11.10
2018-01-08T08:39:42.300Z,11.40
2018-01-08T08:40:49.033Z,11.30
2018-01-08T08:41:55.812Z,11.80
2018-01-08T08:43:02.692Z,11.50
2018-01-08T08:44:09.416Z,10.70
2018-01-08T08:45:16.183Z,11.60
2018-01-08T08:46:22.964Z,10.20
2018-01-08T08:47:29.716Z,11.30
2018-01-08T08:48:36.632Z,11.40
2018-01-08T08:49:43.380Z,10.50
2018-01-08T08:50:50.120Z,11.50
2018-01-08T08:51:56.961Z,11.40
2018-01-08T08:53:03.716Z,11.00
2018-01-08T08:54:10.509Z,11.60
2018-01-08T08:55:17.238Z,10.90
2018-01-08T08:56:24.040Z,10.70
2018-01-08T08:57:30.770Z,11.30
2018-01-08T08:58:37.519Z,11.30
2018-01-08T08:59:44.292Z,11.50
2018-01-08T09:00:51.133Z,11.30
2018-01-08T09:01:57.866Z,11.60
2018-01-08T09:03:04.648Z,11.20
2018-01-08T09:04:11.479Z,10.90
2018-01-08T09:05:18.239Z,11.10
2018-01-08T09:06:25.034Z,10.60
2018-01-08T09:07:31.839Z,10.20
2018-01-08T09:08:38.663Z,11.10
2018-01-08T09:09:45.403Z,9.80
2018-01-08T09:10:52.148Z,9.90
2018-01-08T09:11:58.916Z,10.80
2018-01-08T09:13:05.759Z,11.00
2018-01-08T09:14:12.509Z,10.60
2018-01-08T09:15:19.312Z,10.40
2018-01-08T09:16:26.044Z,10.90
2018-01-08T09:17:32.845Z,10.10
2018-01-08T09:18:39.604Z,10.30
2018-01-08T09:19:46.373Z,11.30
2018-01-08T09:20:53.215Z,11.50
2018-01-08T09:21:59.952Z,10.90
2018-01-08T09:23:06.695Z,11.20
2018-01-08T09:24:13.448Z,12.70
2018-01-08T09:25:20.204Z,10.90
2018-01-08T09:26:27.000Z,11.20
2018-01-08T09:27:33.823Z,10.50
2018-01-08T09:28:40.631Z,10.90
2018-01-08T09:29:47.391Z,11.90
2018-01-08T09:30:54.185Z,12.20
2018-01-08T09:32:00.926Z,10.80
2018-01-08T09:33:07.689Z,12.10
2018-01-08T09:34:14.499Z,11.20
2018-01-08T09:35:21.279Z,12.00
2018-01-08T09:36:28.052Z,12.20
2018-01-08T09:37:34.852Z,17.70
2018-01-08T09:38:41.600Z,14.90
2018-01-08T09:39:48.307Z,12.20
2018-01-08T09:40:55.036Z,11.10
2018-01-08T09:42:01.818Z,12.00
2018-01-08T09:43:08.561Z,11.40
2018-01-08T09:44:15.320Z,11.80
2018-01-08T09:45:22.045Z,11.50
2018-01-08T09:46:28.827Z,11.60
2018-01-08T09:47:35.603Z,12.00
2018-01-08T09:48:42.401Z,11.40
2018-01-08T09:49:49.157Z,11.40
2018-01-08T09:50:55.978Z,11.10
2018-01-08T09:52:02.709Z,10.40
2018-01-08T09:53:09.633Z,12.50
2018-01-08T09:54:16.392Z,12.70
2018-01-08T09:55:23.127Z,11.50
2018-01-08T09:56:29.950Z,12.00
2018-01-08T09:57:36.752Z,12.20
2018-01-08T09:58:43.484Z,11.80
2018-01-08T09:59:50.216Z,11.10
2018-01-08T10:00:57.034Z,12.10
2018-01-08T10:02:03.761Z,12.40
2018-01-08T10:03:10.839Z,10.90
2018-01-08T10:04:17.779Z,12.20
2018-01-08T10:05:24.848Z,12.90
2018-01-08T10:06:31.812Z,12.40
2018-01-08T10:07:38.556Z,11.10
2018-01-08T10:08:45.572Z,11.30
2018-01-08T10:09:52.663Z,11.90
2018-01-08T10:10:59.631Z,12.00
2018-01-08T10:12:06.650Z,12.20
2018-01-08T10:13:13.669Z,11.60
2018-01-08T10:14:20.692Z,12.10
2018-01-08T10:15:27.485Z,11.90
2018-01-08T10:16:34.296Z,13.20
2018-01-08T10:17:41.432Z,23.00
2018-01-08T10:18:48.250Z,12.30
2018-01-08T10:19:55.392Z,12.80
2018-01-08T10:21:02.272Z,12.40
2018-01-08T10:22:09.022Z,12.40
2018-01-08T10:23:15.792Z,12.20
2018-01-08T10:24:22.507Z,11.50
2018-01-08T10:25:29.296Z,12.00
2018-01-08T10:26:36.002Z,14.50
2018-01-08T10:27:42.744Z,13.00
2018-01-08T10:28:49.488Z,17.50
2018-01-08T10:29:56.216Z,15.30
2018-01-08T10:31:02.996Z,17.10
2018-01-08T10:32:09.741Z,15.80
2018-01-08T10:33:16.568Z,13.30
2018-01-08T10:34:23.401Z,12.10
2018-01-08T10:35:30.220Z,12.40
2018-01-08T10:36:37.004Z,12.50
2018-01-08T10:37:43.879Z,12.50
2018-01-08T10:38:50.659Z,12.50
2018-01-08T10:39:57.483Z,11.80
2018-01-08T10:41:04.166Z,16.40
2018-01-08T10:42:10.848Z,16.10
2018-01-08T10:43:17.744Z,17.10
2018-01-08T10:44:24.583Z,18.60
2018-01-08T10:45:31.563Z,15.50
2018-01-08T10:46:38.388Z,13.10
2018-01-08T10:47:45.507Z,12.40
2018-01-08T10:48:52.412Z,13.00
2018-01-08T10:49:59.348Z,13.90
2018-01-08T10:51:06.282Z,19.60
2018-01-08T10:52:13.129Z,16.80
2018-01-08T10:53:19.895Z,17.70
2018-01-08T10:54:26.739Z,17.90
2018-01-08T10:55:33.684Z,13.00
2018-01-08T10:56:40.520Z,11.90
2018-01-08T10:57:47.226Z,12.00
2018-01-08T10:58:53.932Z,15.00
2018-01-08T11:00:00.723Z,12.10
2018-01-08T11:01:07.652Z,12.30
2018-01-08T11:02:14.544Z,13.10
2018-01-08T11:03:26.452Z,13.10
2018-01-08T11:04:33.588Z,11.70
2018-01-08T11:05:40.296Z,13.00
2018-01-08T11:06:47.057Z,12.30
2018-01-08T11:07:53.813Z,12.80
2018-01-08T11:09:00.540Z,15.20
2018-01-08T11:10:07.688Z,12.30
2018-01-08T11:11:14.510Z,11.30
2018-01-08T11:12:21.244Z,12.70
2018-01-08T11:13:28.060Z,12.30
2018-01-08T11:14:34.816Z,12.80
2018-01-08T11:15:41.576Z,13.20
2018-01-08T11:16:48.304Z,13.30
2018-01-08T11:17:55.048Z,14.30
2018-01-08T11:19:01.928Z,13.00
2018-01-08T11:20:08.790Z,13.90
2018-01-08T11:21:15.661Z,11.80
2018-01-08T11:22:22.464Z,13.20
2018-01-08T11:23:29.259Z,11.50
2018-01-08T11:24:36.098Z,13.00
2018-01-08T11:25:42.860Z,13.10
2018-01-08T11:26:49.632Z,12.10
2018-01-08T11:27:56.397Z,13.70
2018-01-08T11:29:03.204Z,15.00
2018-01-08T11:30:09.974Z,16.50
2018-01-08T11:31:16.881Z,12.90
2018-01-08T11:32:23.809Z,13.40
2018-01-08T11:33:30.612Z,14.30
2018-01-08T11:34:37.547Z,12.30
2018-01-08T11:35:44.313Z,14.00
2018-01-08T11:36:51.288Z,13.50
2018-01-08T11:37:58.149Z,15.10
2018-01-08T11:39:04.955Z,15.50
2018-01-08T11:40:11.809Z,11.80
2018-01-08T11:41:18.680Z,11.80
2018-01-08T11:42:25.615Z,14.20
2018-01-08T11:43:32.489Z,12.80
2018-01-08T11:44:39.574Z,13.40
2018-01-08T11:45:46.097Z,12.20
2018-01-08T11:46:53.036Z,12.10
2018-01-08T11:48:00.047Z,13.00
2018-01-08T11:49:07.017Z,12.60
2018-01-08T11:50:13.896Z,12.30
2018-01-08T11:51:20.792Z,11.80
2018-01-08T11:52:27.624Z,11.70
2018-01-08T11:53:34.456Z,12.20
2018-01-08T11:54:41.257Z,12.00
2018-01-08T11:55:48.044Z,12.10
2018-01-08T11:56:54.822Z,12.10
2018-01-08T11:58:01.700Z,13.10
2018-01-08T11:59:08.561Z,18.00
2018-01-08T12:00:15.572Z,13.10
2018-01-08T12:01:22.460Z,12.30
2018-01-08T12:02:29.300Z,12.70
2018-01-08T12:03:36.204Z,13.40
2018-01-08T12:04:43.094Z,12.80
2018-01-08T12:05:50.212Z,12.80
2018-01-08T12:06:57.131Z,11.90
2018-01-08T12:08:04.016Z,12.80
2018-01-08T12:09:10.838Z,12.90
2018-01-08T12:10:17.660Z,12.60
2018-01-08T12:11:24.504Z,12.90
2018-01-08T12:12:31.632Z,13.70
2018-01-08T12:13:38.456Z,12.70
2018-01-08T12:14:45.437Z,12.80
2018-01-08T12:15:52.288Z,12.30
2018-01-08T12:16:59.216Z,13.50
2018-01-08T12:18:06.037Z,12.80
2018-01-08T12:19:12.953Z,12.60
2018-01-08T12:20:19.786Z,14.00
2018-01-08T12:21:26.508Z,13.40
2018-01-08T12:22:33.275Z,12.90
2018-01-08T12:23:40.149Z,13.10
2018-01-08T12:24:46.916Z,11.80
2018-01-08T12:25:53.812Z,12.30
2018-01-08T12:27:00.611Z,12.90
2018-01-08T12:28:07.340Z,13.30
2018-01-08T12:29:14.176Z,13.40
2018-01-08T12:30:21.084Z,12.70
2018-01-08T12:31:27.842Z,12.50
2018-01-08T12:32:34.652Z,12.70
2018-01-08T12:33:41.493Z,12.60
2018-01-08T12:34:48.277Z,12.40
2018-01-08T12:35:55.061Z,12.10
2018-01-08T12:37:01.928Z,12.10
2018-01-08T12:38:08.660Z,13.60
2018-01-08T12:39:15.412Z,15.20
2018-01-08T12:40:22.217Z,12.80
2018-01-08T12:41:29.039Z,11.80
2018-01-08T12:42:35.799Z,13.30
2018-01-08T12:43:42.558Z,14.10
2018-01-08T12:44:49.332Z,16.40
2018-01-08T12:45:56.153Z,14.10
2018-01-08T12:47:02.916Z,12.20
2018-01-08T12:48:09.801Z,12.80
2018-01-08T12:49:16.626Z,13.10
2018-01-08T12:50:23.392Z,13.20
2018-01-08T12:51:30.188Z,12.70
2018-01-08T12:52:36.982Z,11.80
2018-01-08T12:53:43.861Z,12.30
2018-01-08T12:54:50.660Z,11.80
2018-01-08T12:55:57.609Z,13.20
2018-01-08T12:57:04.548Z,12.50
2018-01-08T12:58:11.364Z,12.70
2018-01-08T12:59:18.189Z,12.80
2018-01-08T13:00:24.997Z,13.70
2018-01-08T13:01:31.843Z,12.50
2018-01-08T13:02:38.700Z,12.00
2018-01-08T13:03:45.638Z,11.20
2018-01-08T13:04:52.520Z,12.00
2018-01-08T13:05:59.433Z,12.10
2018-01-08T13:07:06.236Z,12.80
2018-01-08T13:08:13.232Z,11.90
2018-01-08T13:09:20.181Z,12.50
2018-01-08T13:10:27.034Z,12.70
2018-01-08T13:11:33.820Z,12.20
2018-01-08T13:12:40.577Z,12.60
2018-01-08T13:13:47.332Z,11.70
2018-01-08T13:14:54.136Z,13.10
2018-01-08T13:16:00.916Z,11.80
2018-01-08T13:17:07.631Z,11.30
2018-01-08T13:18:14.427Z,14.40
2018-01-08T13:19:21.246Z,12.30
2018-01-08T13:20:28.124Z,12.10
2018-01-08T13:21:34.997Z,12.60
2018-01-08T13:22:41.744Z,12.70
2018-01-08T13:23:48.495Z,12.00
2018-01-08T13:24:55.300Z,12.90
2018-01-08T13:26:02.151Z,12.20
2018-01-08T13:27:08.898Z,12.50
2018-01-08T13:28:15.665Z,12.60
2018-01-08T13:29:22.487Z,12.10
2018-01-08T13:30:29.232Z,17.50
2018-01-08T13:31:35.941Z,16.70
2018-01-08T13:32:42.696Z,12.20
2018-01-08T13:33:49.416Z,21.10
2018-01-08T13:34:56.197Z,12.00
2018-01-08T13:36:02.972Z,11.40
2018-01-08T13:37:09.767Z,12.60
2018-01-08T13:38:16.569Z,12.90
2018-01-08T13:39:23.408Z,12.30
2018-01-08T13:40:30.110Z,12.30
2018-01-08T13:41:36.963Z,12.30
2018-01-08T13:42:43.721Z,13.70
2018-01-08T13:43:50.528Z,12.70
2018-01-08T13:44:57.341Z,11.40
2018-01-08T13:46:04.141Z,12.00
2018-01-08T13:47:11.017Z,11.80
2018-01-08T13:48:17.885Z,12.80
2018-01-08T13:49:24.798Z,12.90
2018-01-08T13:50:31.643Z,11.90
2018-01-08T13:51:38.413Z,12.50
2018-01-08T13:52:45.304Z,12.10
2018-01-08T13:53:52.204Z,11.10
2018-01-08T13:54:59.060Z,11.00
2018-01-08T13:56:05.898Z,12.30
2018-01-08T13:57:12.872Z,12.20
2018-01-08T13:58:19.680Z,11.80
2018-01-08T13:59:26.496Z,13.10
2018-01-08T14:00:33.335Z,12.90
2018-01-08T14:01:40.168Z,11.80
2018-01-08T14:02:46.996Z,12.00
2018-01-08T14:03:53.821Z,13.20
2018-01-08T14:05:00.641Z,13.50
2018-01-08T14:06:07.518Z,11.90
2018-01-08T14:07:14.404Z,13.20
2018-01-08T14:08:21.273Z,12.20
2018-01-08T14:09:28.256Z,11.40
2018-01-08T14:10:35.113Z,11.40
2018-01-08T14:11:42.000Z,12.20
2018-01-08T14:12:48.859Z,13.80
2018-01-08T14:13:55.695Z,12.30
2018-01-08T14:15:02.468Z,12.10
2018-01-08T14:16:09.199Z,14.10
2018-01-08T14:17:15.903Z,11.90
2018-01-08T14:18:22.761Z,13.30
2018-01-08T14:19:29.472Z,12.00
2018-01-08T14:20:36.279Z,12.40
2018-01-08T14:21:43.029Z,11.30
2018-01-08T14:22:49.856Z,12.20
2018-01-08T14:23:56.609Z,11.60
2018-01-08T14:25:03.459Z,11.80